Barbarossa — IBJD — position and weather

sailwx.info

Track history (hours):
 
Tides and Currents Weather Stations Pressure Air Temp Water Temp Dewpoint Dewpoint Depression Visibility Wind Speed Wind Dir Waves Ship Positions

Barbarossa

Last reported at 2017-Apr-23 22:15 UTC. Time now 2017-Apr-24 03:35 UTC.
Position N 44°06' E 014°02'.

Length 294 m; draft 8.1 m.

Type: Passenger vessel. MMSI: 247282900.

Date/timePositionNaut miles runAvg speedWind from/ knotsBaromVisibWave heightAir tempDewpointWater temp
2017-Apr-23 22:15N 44°06' E 014°02'818.3
2017-Apr-23 21:47N 44°13' E 013°55'1318.1
2017-Apr-23 21:05N 44°23' E 013°44'117.6
2017-Apr-23 21:01N 44°24' E 013°43'917.5
2017-Apr-23 20:30N 44°32' E 013°37'917.4
2017-Apr-23 20:01N 44°39' E 013°31'917.5
2017-Apr-23 19:31N 44°47' E 013°24'917.4
2017-Apr-23 19:01N 44°54' E 013°17'917.3
2017-Apr-23 18:31N 45°00' E 013°09'917.2
2017-Apr-23 18:00N 45°06' E 013°01'917.2
2017-Apr-23 17:31N 45°13' E 012°52'917.3
2017-Apr-23 17:01N 45°17' E 012°42'816.9
2017-Apr-23 16:31N 45°22' E 012°32'612.9
2017-Apr-23 16:00N 45°26' E 012°24'3 5.5
2017-Apr-23 15:30N 45°26' E 012°21'1 2.9
2017-Apr-23 15:01N 45°26' E 012°18'0 0.0
2017-Apr-23 13:59N 45°26' E 012°18'0 0.0
2017-Apr-23 13:29N 45°26' E 012°18'0 0.0
2017-Apr-23 12:59N 45°26' E 012°18'0 0.0
2017-Apr-23 12:29N 45°26' E 012°18'0 0.0
2017-Apr-23 11:59N 45°26' E 012°18'0 0.0
2017-Apr-23 11:29N 45°26' E 012°18'0 0.0
2017-Apr-23 10:59N 45°26' E 012°18'0 0.0
2017-Apr-23 10:29N 45°26' E 012°18'0 0.0
2017-Apr-23 09:59N 45°26' E 012°18'0 0.0
2017-Apr-23 09:29N 45°26' E 012°18'0 0.0
2017-Apr-23 08:59N 45°26' E 012°18'0 0.0
2017-Apr-23 08:26N 45°26' E 012°18'0 0.0
2017-Apr-23 07:59N 45°26' E 012°18'0 0.0
2017-Apr-23 07:29N 45°26' E 012°18'0 0.0
2017-Apr-23 06:59N 45°26' E 012°18'0 0.0
2017-Apr-23 06:30N 45°26' E 012°18'2 3.4
2017-Apr-23 06:00N 45°26' E 012°21'3 6.6
2017-Apr-23 05:30N 45°25' E 012°26'611.4
2017-Apr-23 05:00N 45°22' E 012°33'815.3
2017-Apr-23 04:31N 45°19' E 012°42'917.3
2017-Apr-23 04:00N 45°14' E 012°52'917.4
2017-Apr-23 03:30N 45°06' E 012°58'917.1
2017-Apr-23 03:00N 45°01' E 013°08'917.5
2017-Apr-23 02:30N 44°57' E 013°19'917.5
2017-Apr-23 02:00N 44°50' E 013°27'917.7
2017-Apr-23 01:30N 44°43' E 013°34'917.8
2017-Apr-23 01:01N 44°35' E 013°41'917.9
2017-Apr-23 00:30N 44°28' E 013°48'917.8
2017-Apr-23 00:01N 44°21' E 013°55'917.8
2017-Apr-22 23:30N 44°13' E 014°01'917.7
2017-Apr-22 23:00N 44°06' E 014°09'917.6
2017-Apr-22 22:30N 43°59' E 014°17'917.6
2017-Apr-22 22:00N 43°53' E 014°25'917.6
2017-Apr-22 21:30N 43°46' E 014°33'917.7
2017-Apr-22 20:59N 43°39' E 014°41'917.7
2017-Apr-22 20:30N 43°33' E 014°49'917.8
2017-Apr-22 20:00N 43°26' E 014°57'  
2017-Apr-20 15:19N 37°35' E 023°44'517.0
2017-Apr-20 15:01N 37°40' E 023°42'917.2
2017-Apr-20 14:31N 37°48' E 023°38'8 8.1
2017-Apr-20 13:30N 37°56' E 023°38'0 0.0
2017-Apr-20 13:00N 37°56' E 023°38'0 0.0
2017-Apr-20 12:30N 37°56' E 023°38'0 0.0
2017-Apr-20 12:00N 37°56' E 023°38'0 0.0
2017-Apr-20 11:30N 37°56' E 023°38'0 0.0
2017-Apr-20 11:00N 37°56' E 023°38'0 0.0
2017-Apr-20 10:30N 37°56' E 023°38'0 0.0
2017-Apr-20 10:00N 37°56' E 023°38'0 0.0
2017-Apr-20 09:30N 37°56' E 023°38'0 0.0
2017-Apr-20 09:00N 37°56' E 023°38'0 0.0
2017-Apr-20 08:30N 37°56' E 023°38'0 0.0
2017-Apr-20 08:00N 37°56' E 023°38'0 0.0
2017-Apr-20 07:30N 37°56' E 023°38'0 0.0
2017-Apr-20 07:00N 37°56' E 023°38'0 0.0
2017-Apr-20 06:30N 37°56' E 023°38'0 0.0
2017-Apr-20 06:00N 37°56' E 023°38'0 0.0
2017-Apr-20 05:30N 37°56' E 023°38'0 0.0
2017-Apr-20 05:00N 37°56' E 023°38'0 0.0
2017-Apr-20 04:30N 37°56' E 023°38'0 0.2
2017-Apr-20 04:00N 37°56' E 023°38'2 3.6
2017-Apr-20 03:30N 37°55' E 023°37'4 8.8
2017-Apr-20 03:00N 37°51' E 023°39'713.7
2017-Apr-20 02:30N 37°45' E 023°43'713.9
2017-Apr-20 02:00N 37°38' E 023°46'713.7
2017-Apr-20 01:30N 37°32' E 023°48'713.8
2017-Apr-20 01:00N 37°25' E 023°51'713.8
2017-Apr-20 00:30N 37°18' E 023°53'  
2017-Apr-16 22:36N 44°03' E 014°06'217.5
2017-Apr-16 22:30N 44°04' E 014°04'917.4
2017-Apr-16 22:00N 44°11' E 013°58'917.6
2017-Apr-16 21:30N 44°18' E 013°51'917.8
2017-Apr-16 21:00N 44°26' E 013°44'917.8
2017-Apr-16 20:30N 44°33' E 013°37'917.8
2017-Apr-16 20:00N 44°41' E 013°30'917.4
2017-Apr-16 19:30N 44°48' E 013°24'918.5
2017-Apr-16 19:00N 44°55' E 013°16'918.8
2017-Apr-16 18:30N 45°02' E 013°07'918.7
2017-Apr-16 18:00N 45°08' E 012°57'918.4
2017-Apr-16 17:30N 45°15' E 012°48'918.0
2017-Apr-16 17:00N 45°20' E 012°37'815.8
2017-Apr-16 16:30N 45°24' E 012°28'4 8.1
2017-Apr-16 16:01N 45°25' E 012°22'3 5.3
2017-Apr-16 15:30N 45°26' E 012°18'0 0.8
2017-Apr-16 14:57N 45°26' E 012°19'0 0.0
2017-Apr-16 14:30N 45°26' E 012°19'0 0.0
2017-Apr-16 13:30N 45°26' E 012°19'0 0.0
2017-Apr-16 13:00N 45°26' E 012°19'0 0.0
2017-Apr-16 12:30N 45°26' E 012°19'0 0.0
2017-Apr-16 12:00N 45°26' E 012°19'0 0.0
2017-Apr-16 11:30N 45°26' E 012°19'0 0.0
2017-Apr-16 11:00N 45°26' E 012°19'0 0.0
2017-Apr-16 10:30N 45°26' E 012°19'0 0.0
2017-Apr-16 10:00N 45°26' E 012°19'0 0.0
2017-Apr-16 09:30N 45°26' E 012°19'0 0.0
2017-Apr-16 09:00N 45°26' E 012°19'0 0.0
2017-Apr-16 08:30N 45°26' E 012°19'0 0.0
2017-Apr-16 08:00N 45°26' E 012°19'0 0.0
2017-Apr-16 07:30N 45°26' E 012°19'0 0.0
2017-Apr-16 07:00N 45°26' E 012°19'0 0.5
2017-Apr-16 06:31N 45°26' E 012°19'2 4.6
2017-Apr-16 06:00N 45°25' E 012°22'4 7.7
2017-Apr-16 05:31N 45°25' E 012°27'713.5
2017-Apr-16 05:01N 45°21' E 012°35'917.2
2017-Apr-16 04:31N 45°17' E 012°46'816.7
2017-Apr-16 04:01N 45°11' E 012°53'917.3
2017-Apr-16 03:31N 45°04' E 013°01'917.3
2017-Apr-16 03:01N 44°60' E 013°12'917.3
2017-Apr-16 02:31N 44°56' E 013°23'917.1
2017-Apr-16 02:01N 44°49' E 013°29'917.1
2017-Apr-16 01:31N 44°41' E 013°35'917.1
2017-Apr-16 01:01N 44°34' E 013°42'917.1
2017-Apr-16 00:31N 44°27' E 013°49'917.0
2017-Apr-16 00:01N 44°20' E 013°55'816.8
2017-Apr-15 23:31N 44°13' E 014°02'917.0
2017-Apr-15 23:01N 44°06' E 014°09'917.2
2017-Apr-15 22:31N 44°00' E 014°17'  
Track history (hours):
 
Tides and Currents Weather Stations Pressure Air Temp Water Temp Dewpoint Dewpoint Depression Visibility Wind Speed Wind Dir Waves Ship Positions

Barbarossa

Last reported at 2017-Apr-23 22:15 UTC. Time now 2017-Apr-24 03:35 UTC.
Position N 44°06' E 014°02'.

Length 294 m; draft 8.1 m.

Type: Passenger vessel. MMSI: 247282900.

Date/timePositionNaut miles runAvg speedWind from/ knotsBaromVisibWave heightAir tempDewpointWater temp
2017-Apr-23 22:15N 44°06' E 014°02'818.3
2017-Apr-23 21:47N 44°13' E 013°55'1318.1
2017-Apr-23 21:05N 44°23' E 013°44'117.6
2017-Apr-23 21:01N 44°24' E 013°43'917.5
2017-Apr-23 20:30N 44°32' E 013°37'917.4
2017-Apr-23 20:01N 44°39' E 013°31'917.5
2017-Apr-23 19:31N 44°47' E 013°24'917.4
2017-Apr-23 19:01N 44°54' E 013°17'917.3
2017-Apr-23 18:31N 45°00' E 013°09'917.2
2017-Apr-23 18:00N 45°06' E 013°01'917.2
2017-Apr-23 17:31N 45°13' E 012°52'917.3
2017-Apr-23 17:01N 45°17' E 012°42'816.9
2017-Apr-23 16:31N 45°22' E 012°32'612.9
2017-Apr-23 16:00N 45°26' E 012°24'3 5.5
2017-Apr-23 15:30N 45°26' E 012°21'1 2.9
2017-Apr-23 15:01N 45°26' E 012°18'0 0.0
2017-Apr-23 13:59N 45°26' E 012°18'0 0.0
2017-Apr-23 13:29N 45°26' E 012°18'0 0.0
2017-Apr-23 12:59N 45°26' E 012°18'0 0.0
2017-Apr-23 12:29N 45°26' E 012°18'0 0.0
2017-Apr-23 11:59N 45°26' E 012°18'0 0.0
2017-Apr-23 11:29N 45°26' E 012°18'0 0.0
2017-Apr-23 10:59N 45°26' E 012°18'0 0.0
2017-Apr-23 10:29N 45°26' E 012°18'0 0.0
2017-Apr-23 09:59N 45°26' E 012°18'0 0.0
2017-Apr-23 09:29N 45°26' E 012°18'0 0.0
2017-Apr-23 08:59N 45°26' E 012°18'0 0.0
2017-Apr-23 08:26N 45°26' E 012°18'0 0.0
2017-Apr-23 07:59N 45°26' E 012°18'0 0.0
2017-Apr-23 07:29N 45°26' E 012°18'0 0.0
2017-Apr-23 06:59N 45°26' E 012°18'0 0.0
2017-Apr-23 06:30N 45°26' E 012°18'2 3.4
2017-Apr-23 06:00N 45°26' E 012°21'3 6.6
2017-Apr-23 05:30N 45°25' E 012°26'611.4
2017-Apr-23 05:00N 45°22' E 012°33'815.3
2017-Apr-23 04:31N 45°19' E 012°42'917.3
2017-Apr-23 04:00N 45°14' E 012°52'917.4
2017-Apr-23 03:30N 45°06' E 012°58'917.1
2017-Apr-23 03:00N 45°01' E 013°08'917.5
2017-Apr-23 02:30N 44°57' E 013°19'917.5
2017-Apr-23 02:00N 44°50' E 013°27'917.7
2017-Apr-23 01:30N 44°43' E 013°34'917.8
2017-Apr-23 01:01N 44°35' E 013°41'917.9
2017-Apr-23 00:30N 44°28' E 013°48'917.8
2017-Apr-23 00:01N 44°21' E 013°55'917.8
2017-Apr-22 23:30N 44°13' E 014°01'917.7
2017-Apr-22 23:00N 44°06' E 014°09'917.6
2017-Apr-22 22:30N 43°59' E 014°17'917.6
2017-Apr-22 22:00N 43°53' E 014°25'917.6
2017-Apr-22 21:30N 43°46' E 014°33'917.7
2017-Apr-22 20:59N 43°39' E 014°41'917.7
2017-Apr-22 20:30N 43°33' E 014°49'917.8
2017-Apr-22 20:00N 43°26' E 014°57'  
2017-Apr-20 15:19N 37°35' E 023°44'517.0
2017-Apr-20 15:01N 37°40' E 023°42'917.2
2017-Apr-20 14:31N 37°48' E 023°38'8 8.1
2017-Apr-20 13:30N 37°56' E 023°38'0 0.0
2017-Apr-20 13:00N 37°56' E 023°38'0 0.0
2017-Apr-20 12:30N 37°56' E 023°38'0 0.0
2017-Apr-20 12:00N 37°56' E 023°38'0 0.0
2017-Apr-20 11:30N 37°56' E 023°38'0 0.0
2017-Apr-20 11:00N 37°56' E 023°38'0 0.0
2017-Apr-20 10:30N 37°56' E 023°38'0 0.0
2017-Apr-20 10:00N 37°56' E 023°38'0 0.0
2017-Apr-20 09:30N 37°56' E 023°38'0 0.0
2017-Apr-20 09:00N 37°56' E 023°38'0 0.0
2017-Apr-20 08:30N 37°56' E 023°38'0 0.0
2017-Apr-20 08:00N 37°56' E 023°38'0 0.0
2017-Apr-20 07:30N 37°56' E 023°38'0 0.0
2017-Apr-20 07:00N 37°56' E 023°38'0 0.0
2017-Apr-20 06:30N 37°56' E 023°38'0 0.0
2017-Apr-20 06:00N 37°56' E 023°38'0 0.0
2017-Apr-20 05:30N 37°56' E 023°38'0 0.0
2017-Apr-20 05:00N 37°56' E 023°38'0 0.0
2017-Apr-20 04:30N 37°56' E 023°38'0 0.2
2017-Apr-20 04:00N 37°56' E 023°38'2 3.6
2017-Apr-20 03:30N 37°55' E 023°37'4 8.8
2017-Apr-20 03:00N 37°51' E 023°39'713.7
2017-Apr-20 02:30N 37°45' E 023°43'713.9
2017-Apr-20 02:00N 37°38' E 023°46'713.7
2017-Apr-20 01:30N 37°32' E 023°48'713.8
2017-Apr-20 01:00N 37°25' E 023°51'713.8
2017-Apr-20 00:30N 37°18' E 023°53'  
2017-Apr-16 22:36N 44°03' E 014°06'217.5
2017-Apr-16 22:30N 44°04' E 014°04'917.4
2017-Apr-16 22:00N 44°11' E 013°58'917.6
2017-Apr-16 21:30N 44°18' E 013°51'917.8
2017-Apr-16 21:00N 44°26' E 013°44'917.8
2017-Apr-16 20:30N 44°33' E 013°37'917.8
2017-Apr-16 20:00N 44°41' E 013°30'917.4
2017-Apr-16 19:30N 44°48' E 013°24'918.5
2017-Apr-16 19:00N 44°55' E 013°16'918.8
2017-Apr-16 18:30N 45°02' E 013°07'918.7
2017-Apr-16 18:00N 45°08' E 012°57'918.4
2017-Apr-16 17:30N 45°15' E 012°48'918.0
2017-Apr-16 17:00N 45°20' E 012°37'815.8
2017-Apr-16 16:30N 45°24' E 012°28'4 8.1
2017-Apr-16 16:01N 45°25' E 012°22'3 5.3
2017-Apr-16 15:30N 45°26' E 012°18'0 0.8
2017-Apr-16 14:57N 45°26' E 012°19'0 0.0
2017-Apr-16 14:30N 45°26' E 012°19'0 0.0
2017-Apr-16 13:30N 45°26' E 012°19'0 0.0
2017-Apr-16 13:00N 45°26' E 012°19'0 0.0
2017-Apr-16 12:30N 45°26' E 012°19'0 0.0
2017-Apr-16 12:00N 45°26' E 012°19'0 0.0
2017-Apr-16 11:30N 45°26' E 012°19'0 0.0
2017-Apr-16 11:00N 45°26' E 012°19'0 0.0
2017-Apr-16 10:30N 45°26' E 012°19'0 0.0
2017-Apr-16 10:00N 45°26' E 012°19'0 0.0
2017-Apr-16 09:30N 45°26' E 012°19'0 0.0
2017-Apr-16 09:00N 45°26' E 012°19'0 0.0
2017-Apr-16 08:30N 45°26' E 012°19'0 0.0
2017-Apr-16 08:00N 45°26' E 012°19'0 0.0
2017-Apr-16 07:30N 45°26' E 012°19'0 0.0
2017-Apr-16 07:00N 45°26' E 012°19'0 0.5
2017-Apr-16 06:31N 45°26' E 012°19'2 4.6
2017-Apr-16 06:00N 45°25' E 012°22'4 7.7
2017-Apr-16 05:31N 45°25' E 012°27'713.5
2017-Apr-16 05:01N 45°21' E 012°35'917.2
2017-Apr-16 04:31N 45°17' E 012°46'816.7
2017-Apr-16 04:01N 45°11' E 012°53'917.3
2017-Apr-16 03:31N 45°04' E 013°01'917.3
2017-Apr-16 03:01N 44°60' E 013°12'917.3
2017-Apr-16 02:31N 44°56' E 013°23'917.1
2017-Apr-16 02:01N 44°49' E 013°29'917.1
2017-Apr-16 01:31N 44°41' E 013°35'917.1
2017-Apr-16 01:01N 44°34' E 013°42'917.1
2017-Apr-16 00:31N 44°27' E 013°49'917.0
2017-Apr-16 00:01N 44°20' E 013°55'816.8
2017-Apr-15 23:31N 44°13' E 014°02'917.0
2017-Apr-15 23:01N 44°06' E 014°09'917.2
2017-Apr-15 22:31N 44°00' E 014°17'  

Dump ship's entire track history